Boultons Beach, New York
Current Conditions -  °F | °C
As of 6:56 PM on Saturday 20 Dec 2014 (Local Time) from KART Reporting Station
Clear Clear  
Wind Chill: 21°   Ceiling: Unl
Heat Index: 21°   Visibility: 10mi
Dew Point: 13°   Wind: 0mph
Humidity: 71%   Direction: NA
Pressure: 30.31"   Gusts: NA
Location:  43.9321°N, 76.0832°W
Report Text: KART 202356Z AUTO 00000KT 10SM CLR M06/M11 A3031 RMK AO2 SLP272 T10611106 11006 21067 53017
Loading
Personal Weather Stations






























Interactive Weather Map New forecast layout! Learn more

10-Day Weather Forecast

Advertisements
Track Severe Weather on mobile